Time;durP1;ratioP1;P1;durP2;ratioP2;P2;SDS_P1;SDS_P2;PMS_P1;PMS_P2;Temp;Humidity;BMP_temperature;BMP_pressure;BME280_temperature;BME280_humidity;BME280_pressure;Samples;Min_cycle;Max_cycle;Signal;HPM_P1;HPM_P2
2022/01/23 00:01:54;;;;;;;23.57;15.03;;;0.20;99.90;;;;;;6310062;22;20139;-80
2022/01/23 00:04:20;;;;;;;19.10;14.13;;;0.20;99.90;;;;;;6309293;22;20262;-80
2022/01/23 00:06:47;;;;;;;18.27;13.87;;;0.50;99.90;;;;;;6312261;22;20156;-80
2022/01/23 00:09:15;;;;;;;20.00;13.80;;;0.30;99.90;;;;;;6314027;22;20247;-81
2022/01/23 00:11:48;;;;;;;20.07;13.87;;;0.30;99.90;;;;;;6313514;22;20148;-81
2022/01/23 00:19:42;;;;;;;23.83;13.77;;;0.30;99.90;;;;;;6314221;22;20146;-81
2022/01/23 00:22:09;;;;;;;21.90;14.30;;;0.30;99.90;;;;;;6311690;22;20152;-81
2022/01/23 00:32:49;;;;;;;22.20;14.40;;;0.30;99.90;;;;;;6313036;22;20508;-81
2022/01/23 00:35:15;;;;;;;19.37;13.70;;;0.30;99.90;;;;;;6312317;22;20148;-81
2022/01/23 00:37:42;;;;;;;20.40;13.63;;;0.30;99.90;;;;;;6311524;22;20148;-81
2022/01/23 00:40:11;;;;;;;19.70;14.23;;;0.30;99.90;;;;;;6313749;22;20147;-81
2022/01/23 00:42:36;;;;;;;19.33;14.67;;;0.30;99.90;;;;;;6311728;22;20191;-81
2022/01/23 00:45:27;;;;;;;17.23;14.17;;;0.30;99.90;;;;;;6313521;22;20140;-80
2022/01/23 00:48:01;;;;;;;18.57;13.53;;;0.30;99.90;;;;;;6313340;22;20136;-80
2022/01/23 00:50:28;;;;;;;24.10;14.43;;;0.30;99.90;;;;;;6311797;22;20183;-81
2022/01/23 00:52:54;;;;;;;17.53;13.13;;;0.30;99.90;;;;;;6313287;22;20204;-81
2022/01/23 00:55:20;;;;;;;21.03;14.33;;;0.30;99.90;;;;;;6313926;22;20140;-81
2022/01/23 00:57:45;;;;;;;24.83;15.97;;;0.30;99.90;;;;;;6313230;22;20576;-82
2022/01/23 01:00:12;;;;;;;20.90;14.30;;;0.30;99.90;;;;;;6311430;22;20561;-81
2022/01/23 01:02:38;;;;;;;24.77;15.43;;;0.40;99.90;;;;;;6312758;22;20681;-81
2022/01/23 01:05:05;;;;;;;20.73;14.57;;;0.40;99.90;;;;;;6311000;22;20225;-81
2022/01/23 01:07:30;;;;;;;23.70;15.80;;;0.40;99.90;;;;;;6314469;22;20143;-81
2022/01/23 01:10:01;;;;;;;26.77;15.30;;;0.40;99.90;;;;;;6311586;22;20225;-81
2022/01/23 01:12:36;;;;;;;25.03;14.60;;;0.50;99.90;;;;;;6312828;22;20167;-82
2022/01/23 01:15:27;;;;;;;26.20;14.47;;;0.50;99.90;;;;;;6312511;22;20128;-81
2022/01/23 01:31:24;;;;;;;27.20;15.30;;;0.60;99.90;;;;;;6312380;22;20591;-81
2022/01/23 01:33:56;;;;;;;23.07;15.00;;;0.60;99.90;;;;;;6312648;22;20179;-81
2022/01/23 01:36:38;;;;;;;25.90;15.80;;;0.70;99.90;;;;;;6312377;22;20124;-81
2022/01/23 01:39:06;;;;;;;26.47;15.33;;;0.80;99.90;;;;;;6313185;22;20132;-81
2022/01/23 01:41:35;;;;;;;22.90;15.63;;;0.80;99.90;;;;;;6312281;22;20148;-81
2022/01/23 01:44:00;;;;;;;24.73;15.10;;;0.80;99.90;;;;;;6312434;22;20168;-81
2022/01/23 01:46:28;;;;;;;25.07;15.80;;;0.80;99.90;;;;;;6310190;22;20151;-81
2022/01/23 01:48:54;;;;;;;21.80;15.60;;;0.80;99.90;;;;;;6285876;22;20499;-81
2022/01/23 01:51:20;;;;;;;22.43;14.63;;;0.90;99.90;;;;;;6311027;22;20148;-81
2022/01/23 01:53:57;;;;;;;24.73;15.57;;;1.20;99.90;;;;;;6312777;22;20172;-81
2022/01/23 01:56:22;;;;;;;25.53;16.10;;;0.90;99.90;;;;;;6312493;22;20624;-82
2022/01/23 02:55:47;;;;;;;13.50;10.53;;;1.50;99.90;;;;;;6323629;22;20128;-82
2022/01/23 02:58:16;;;;;;;16.60;11.83;;;1.60;99.90;;;;;;6312970;22;20160;-82
2022/01/23 03:00:49;;;;;;;14.10;11.20;;;1.60;99.90;;;;;;6312705;22;20144;-82
2022/01/23 03:03:22;;;;;;;12.40;9.57;;;1.60;99.90;;;;;;6311776;22;20281;-81
2022/01/23 03:06:10;;;;;;;13.70;9.40;;;1.60;99.90;;;;;;6313278;22;20147;-82
2022/01/23 03:09:00;;;;;;;12.70;9.57;;;1.60;99.90;;;;;;6313172;22;20152;-82
2022/01/23 03:32:43;;;;;;;11.97;9.87;;;1.70;99.90;;;;;;6321141;22;20611;-82
2022/01/23 03:35:09;;;;;;;12.50;9.60;;;1.70;99.90;;;;;;6314419;22;20145;-82
2022/01/23 03:37:35;;;;;;;11.57;9.20;;;1.80;99.90;;;;;;6311365;22;20158;-82
2022/01/23 03:40:02;;;;;;;12.37;9.83;;;1.80;99.90;;;;;;6312641;22;20634;-82
2022/01/23 03:42:28;;;;;;;12.27;9.10;;;1.90;99.90;;;;;;6312914;22;20164;-82
2022/01/23 03:47:52;;;;;;;12.83;9.60;;;2.00;99.90;;;;;;6322502;22;20258;-83
2022/01/23 03:50:18;;;;;;;12.93;10.23;;;1.90;99.90;;;;;;6312854;22;20176;-83
2022/01/23 03:52:44;;;;;;;13.23;9.87;;;1.90;99.90;;;;;;6310662;22;20620;-83
2022/01/23 03:55:10;;;;;;;13.03;10.10;;;1.90;99.90;;;;;;6312559;22;20153;-83
2022/01/23 03:57:36;;;;;;;12.83;9.97;;;1.80;99.90;;;;;;6312233;22;20147;-83
2022/01/23 04:00:04;;;;;;;11.17;8.73;;;1.90;99.90;;;;;;6312652;22;20168;-83
2022/01/23 04:02:29;;;;;;;10.97;9.27;;;1.80;99.90;;;;;;6310061;22;20270;-84
2022/01/23 04:04:55;;;;;;;12.77;9.57;;;1.90;99.90;;;;;;6310079;22;20162;-83
2022/01/23 04:07:25;;;;;;;12.83;9.80;;;1.90;99.90;;;;;;6311884;22;20484;-82
2022/01/23 04:09:51;;;;;;;10.70;8.40;;;1.90;99.90;;;;;;6309969;22;20152;-82
2022/01/23 04:12:40;;;;;;;10.87;8.93;;;1.90;99.90;;;;;;6311842;22;20152;-82
2022/01/23 04:15:39;;;;;;;12.00;8.63;;;1.90;99.90;;;;;;6310334;22;20148;-82
2022/01/23 04:34:28;;;;;;;11.00;8.77;;;1.80;99.90;;;;;;6313925;22;20247;-82
2022/01/23 05:01:12;;;;;;;8.30;7.43;;;1.80;99.90;;;;;;6311790;22;20143;-82
2022/01/23 05:06:25;;;;;;;9.33;8.33;;;1.90;99.90;;;;;;6313092;22;20191;-83
2022/01/23 05:08:51;;;;;;;9.57;8.20;;;1.90;99.90;;;;;;6311620;22;20171;-82
2022/01/23 05:11:17;;;;;;;10.00;8.33;;;1.90;99.90;;;;;;6309472;22;20495;-82
2022/01/23 05:13:44;;;;;;;9.00;7.60;;;1.90;99.90;;;;;;6312510;22;20167;-82
2022/01/23 05:16:11;;;;;;;8.97;7.43;;;1.90;99.90;;;;;;6311449;22;20178;-82
2022/01/23 05:18:37;;;;;;;10.00;7.57;;;1.90;99.90;;;;;;6312555;22;20140;-82
2022/01/23 05:21:45;;;;;;;8.40;7.50;;;1.80;99.90;;;;;;6313350;22;20235;-82
2022/01/23 05:24:04;;;;;;;8.87;7.70;;;1.90;99.90;;;;;;6312915;22;20172;-82
2022/01/23 05:26:31;;;;;;;10.43;8.20;;;1.80;99.90;;;;;;6312203;22;20179;-82
2022/01/23 05:28:57;;;;;;;9.30;7.40;;;1.80;99.90;;;;;;6312971;22;20651;-82
2022/01/23 05:31:23;;;;;;;10.50;7.83;;;1.80;99.90;;;;;;6312575;22;20201;-82
2022/01/23 05:33:48;;;;;;;8.87;7.40;;;1.80;99.90;;;;;;6313052;22;20193;-84
2022/01/23 05:36:14;;;;;;;9.27;8.00;;;2.10;99.90;;;;;;6313145;22;20166;-82
2022/01/23 05:38:40;;;;;;;10.47;7.87;;;1.80;99.90;;;;;;6310754;22;20152;-82
2022/01/23 05:41:05;;;;;;;9.30;8.00;;;2.00;99.90;;;;;;6311051;22;20140;-82
2022/01/23 05:43:31;;;;;;;10.33;8.03;;;1.80;99.90;;;;;;6311767;22;20175;-81
2022/01/23 05:45:57;;;;;;;11.73;8.53;;;1.80;99.90;;;;;;6312437;22;20151;-82
2022/01/23 05:48:22;;;;;;;11.00;8.03;;;1.80;99.90;;;;;;6312164;22;20151;-82
2022/01/23 05:50:49;;;;;;;10.30;8.20;;;2.00;99.90;;;;;;6311659;22;20156;-82
2022/01/23 05:53:15;;;;;;;9.70;8.40;;;1.90;99.90;;;;;;6312016;22;20171;-82
2022/01/23 05:55:40;;;;;;;10.07;7.77;;;1.90;99.90;;;;;;6310689;22;20150;-82
2022/01/23 05:58:06;;;;;;;11.00;8.63;;;1.90;99.90;;;;;;6311559;22;20160;-82
2022/01/23 06:00:32;;;;;;;10.00;8.63;;;2.00;99.90;;;;;;6312224;22;20140;-82
2022/01/23 06:02:57;;;;;;;12.50;9.10;;;2.00;99.90;;;;;;6312436;22;20260;-80
2022/01/23 06:05:23;;;;;;;10.67;8.50;;;2.10;99.90;;;;;;6310062;22;20163;-82
2022/01/23 06:07:50;;;;;;;11.33;8.77;;;2.00;99.90;;;;;;6312444;22;20624;-82
2022/01/23 06:10:25;;;;;;;12.63;9.20;;;2.00;99.90;;;;;;6312371;22;20147;-83
2022/01/23 06:12:52;;;;;;;11.87;8.43;;;2.00;99.90;;;;;;6311978;22;20169;-83
2022/01/23 06:15:18;;;;;;;16.47;8.90;;;2.00;99.90;;;;;;6312887;22;20203;-82
2022/01/23 06:17:44;;;;;;;9.50;8.10;;;2.00;99.90;;;;;;6310393;22;20149;-83
2022/01/23 06:20:12;;;;;;;12.20;8.83;;;2.10;99.90;;;;;;6311739;22;20157;-82
2022/01/23 06:22:38;;;;;;;10.13;8.33;;;2.10;99.90;;;;;;6309715;22;20178;-82
2022/01/23 06:25:07;;;;;;;10.23;8.27;;;2.10;99.90;;;;;;6311715;22;20151;-82
2022/01/23 06:27:33;;;;;;;9.30;7.80;;;2.10;99.90;;;;;;6309630;22;20158;-83
2022/01/23 06:29:59;;;;;;;11.17;8.47;;;2.00;99.90;;;;;;6310245;22;20171;-82
2022/01/23 06:32:25;;;;;;;11.03;8.13;;;2.00;99.90;;;;;;6308069;22;20197;-82
2022/01/23 06:34:51;;;;;;;9.17;7.73;;;1.90;99.90;;;;;;6310102;22;20182;-82
2022/01/23 06:37:17;;;;;;;9.07;7.70;;;1.90;99.90;;;;;;6310667;22;20171;-83
2022/01/23 06:39:43;;;;;;;8.50;7.17;;;1.80;99.90;;;;;;6310096;22;20461;-82
2022/01/23 06:42:12;;;;;;;9.93;7.87;;;1.80;99.90;;;;;;6310359;22;20170;-82
2022/01/23 06:44:38;;;;;;;11.10;7.50;;;2.10;99.90;;;;;;6307898;22;20157;-82
2022/01/23 06:47:05;;;;;;;11.00;8.73;;;1.80;99.90;;;;;;6310211;22;20162;-82
2022/01/23 06:49:30;;;;;;;94.80;40.40;;;1.80;99.90;;;;;;6309185;22;20159;-82
2022/01/23 06:51:56;;;;;;;22.20;13.73;;;1.70;99.90;;;;;;6308876;22;20148;-84
2022/01/23 06:54:22;;;;;;;14.90;9.87;;;1.70;99.90;;;;;;6310205;22;20254;-83
2022/01/23 06:56:48;;;;;;;16.27;10.90;;;1.80;99.90;;;;;;6308779;22;20178;-82
2022/01/23 06:59:14;;;;;;;15.60;11.17;;;1.80;99.90;;;;;;6310580;22;20140;-82
2022/01/23 07:01:40;;;;;;;13.50;10.20;;;1.90;99.90;;;;;;6307664;22;20152;-82
2022/01/23 07:04:05;;;;;;;12.57;10.07;;;1.90;99.90;;;;;;6309874;22;20361;-83
2022/01/23 07:06:31;;;;;;;10.93;9.17;;;1.90;99.90;;;;;;6310402;22;20226;-82
2022/01/23 07:08:57;;;;;;;9.80;7.63;;;2.00;99.90;;;;;;6309833;22;20202;-82
2022/01/23 07:11:23;;;;;;;9.73;7.87;;;1.90;99.90;;;;;;6309749;22;20175;-82
2022/01/23 07:13:48;;;;;;;10.77;8.57;;;1.90;99.90;;;;;;6309122;22;20184;-82
2022/01/23 07:16:14;;;;;;;11.37;7.93;;;1.90;99.90;;;;;;6310806;22;20152;-88
2022/01/23 07:18:40;;;;;;;9.47;8.30;;;1.90;99.90;;;;;;6310708;22;20222;-82
2022/01/23 07:21:05;;;;;;;13.60;10.17;;;1.90;99.90;;;;;;6310367;22;20147;-82
2022/01/23 07:23:34;;;;;;;13.67;9.37;;;1.90;99.90;;;;;;6309931;22;20163;-82
2022/01/23 07:26:00;;;;;;;11.40;8.37;;;2.00;99.90;;;;;;6308784;22;20721;-82
2022/01/23 07:28:36;;;;;;;12.13;9.43;;;2.30;99.90;;;;;;6309225;22;20148;-81
2022/01/23 07:31:04;;;;;;;12.20;9.97;;;2.10;99.90;;;;;;6311237;22;20128;-82
2022/01/23 07:33:32;;;;;;;12.67;8.90;;;2.10;99.90;;;;;;6310809;22;20230;-82
2022/01/23 07:35:58;;;;;;;11.43;9.10;;;2.10;99.90;;;;;;6310959;22;20163;-82
2022/01/23 07:38:23;;;;;;;10.93;9.60;;;2.10;99.90;;;;;;6311043;22;20484;-82
2022/01/23 07:40:49;;;;;;;16.33;10.93;;;2.10;99.90;;;;;;6311368;22;20140;-82
2022/01/23 07:43:15;;;;;;;40.20;19.93;;;2.20;99.90;;;;;;6311445;22;20239;-81
2022/01/23 07:45:43;;;;;;;17.57;11.60;;;2.10;99.90;;;;;;6310857;22;20154;-82
2022/01/23 07:48:09;;;;;;;16.57;10.43;;;2.20;99.90;;;;;;6309344;22;20203;-82
2022/01/23 07:50:35;;;;;;;12.27;8.50;;;2.20;99.90;;;;;;6310513;22;20535;-82
2022/01/23 07:53:01;;;;;;;10.47;7.53;;;2.20;99.90;;;;;;6309136;22;20624;-81
2022/01/23 07:55:27;;;;;;;11.47;8.40;;;2.20;99.90;;;;;;6308517;22;20148;-82
2022/01/23 07:57:53;;;;;;;10.73;8.50;;;2.20;99.90;;;;;;6283343;22;20214;-82
2022/01/23 08:00:20;;;;;;;11.73;8.87;;;2.20;99.90;;;;;;6309522;22;20148;-82
2022/01/23 08:02:46;;;;;;;9.27;8.23;;;2.40;99.90;;;;;;6309469;22;20183;-84
2022/01/23 08:05:12;;;;;;;9.73;8.63;;;2.30;99.90;;;;;;6308539;22;20150;-81
2022/01/23 08:07:38;;;;;;;12.13;7.87;;;2.30;99.90;;;;;;6310875;22;20443;-81
2022/01/23 08:10:08;;;;;;;9.00;7.73;;;2.30;99.90;;;;;;6310154;22;20140;-81
2022/01/23 08:12:35;;;;;;;12.10;7.87;;;2.30;99.90;;;;;;6309803;22;20612;-82
2022/01/23 08:15:02;;;;;;;10.63;8.60;;;2.30;99.90;;;;;;6311513;22;20176;-80
2022/01/23 08:17:28;;;;;;;11.20;8.80;;;2.30;99.90;;;;;;6326180;22;20215;-80
2022/01/23 08:19:55;;;;;;;12.47;9.40;;;2.30;99.90;;;;;;6327616;22;20469;-82
2022/01/23 08:22:23;;;;;;;11.07;8.67;;;2.30;99.90;;;;;;6322595;22;20172;-83
2022/01/23 08:24:50;;;;;;;10.43;8.63;;;2.40;99.90;;;;;;6316491;22;20208;-85
2022/01/23 08:27:16;;;;;;;11.07;8.40;;;2.40;99.90;;;;;;6313380;22;20144;-82
2022/01/23 08:29:41;;;;;;;13.20;9.93;;;2.40;99.90;;;;;;6314585;22;20154;-83
2022/01/23 08:32:08;;;;;;;24.80;18.13;;;2.40;99.90;;;;;;6312592;22;20526;-82
2022/01/23 08:34:35;;;;;;;12.57;9.47;;;2.40;99.90;;;;;;6314421;22;20608;-82
2022/01/23 08:37:02;;;;;;;10.03;8.33;;;2.60;99.90;;;;;;6312043;22;20155;-82
2022/01/23 08:39:30;;;;;;;8.83;7.93;;;2.50;99.90;;;;;;6313886;22;20136;-82
2022/01/23 08:41:56;;;;;;;9.57;7.50;;;2.50;99.90;;;;;;6313600;22;20155;-83
2022/01/23 08:44:29;;;;;;;9.10;7.67;;;2.50;99.90;;;;;;6313522;22;20172;-81
2022/01/23 08:46:55;;;;;;;11.30;8.97;;;2.50;99.90;;;;;;6313096;22;20148;-82
2022/01/23 08:49:22;;;;;;;15.53;10.23;;;2.50;99.90;;;;;;6312266;22;20188;-82
2022/01/23 08:51:49;;;;;;;12.03;9.37;;;2.60;99.90;;;;;;6312166;22;20611;-83
2022/01/23 08:54:16;;;;;;;15.90;9.50;;;2.60;99.90;;;;;;6311974;22;20175;-83
2022/01/23 08:56:43;;;;;;;12.93;8.83;;;2.60;99.90;;;;;;6313210;22;20174;-82
2022/01/23 08:59:09;;;;;;;11.50;9.07;;;2.60;99.90;;;;;;6311548;22;20231;-82
2022/01/23 09:01:36;;;;;;;15.30;9.93;;;2.90;99.90;;;;;;6314853;22;20156;-81
2022/01/23 09:04:03;;;;;;;13.10;9.87;;;2.70;99.90;;;;;;6311505;22;20184;-82
2022/01/23 09:06:29;;;;;;;11.60;9.73;;;2.70;99.90;;;;;;6311920;22;20231;-81
2022/01/23 09:08:57;;;;;;;12.13;9.37;;;2.70;99.90;;;;;;6313314;22;20254;-81
2022/01/23 09:11:37;;;;;;;11.10;8.97;;;2.80;99.90;;;;;;6311981;22;20144;-82
2022/01/23 09:14:07;;;;;;;15.87;11.27;;;2.80;99.90;;;;;;6312841;22;20169;-82
2022/01/23 09:16:56;;;;;;;12.80;10.70;;;2.90;99.90;;;;;;6312545;22;20142;-82
2022/01/23 09:19:24;;;;;;;10.03;8.97;;;2.90;99.90;;;;;;6298492;22;20264;-83
2022/01/23 09:21:51;;;;;;;12.77;10.03;;;3.00;99.90;;;;;;6314713;22;20144;-83
2022/01/23 09:24:19;;;;;;;11.10;9.60;;;3.10;99.90;;;;;;6311589;22;20254;-83
2022/01/23 09:26:52;;;;;;;14.23;10.13;;;3.00;99.90;;;;;;6312484;22;20199;-83
2022/01/23 09:29:25;;;;;;;15.13;10.77;;;3.10;99.90;;;;;;6314590;22;20132;-84
2022/01/23 09:31:52;;;;;;;12.13;9.93;;;3.20;99.90;;;;;;6314603;22;20215;-83
2022/01/23 09:34:32;;;;;;;10.37;9.20;;;3.20;99.90;;;;;;6314489;22;20197;-84
2022/01/23 09:37:01;;;;;;;12.43;9.77;;;3.30;99.90;;;;;;6323379;22;20128;-84
2022/01/23 09:39:28;;;;;;;11.77;8.93;;;3.30;99.90;;;;;;6311906;22;20153;-83
2022/01/23 09:42:11;;;;;;;12.00;9.43;;;3.40;99.90;;;;;;6314862;22;20145;-84
2022/01/23 09:44:51;;;;;;;12.03;9.63;;;3.40;99.90;;;;;;6311808;22;20157;-82
2022/01/23 09:47:21;;;;;;;13.03;9.77;;;3.40;99.90;;;;;;6316856;22;20144;-84
2022/01/23 09:49:50;;;;;;;12.13;9.53;;;3.40;99.90;;;;;;6317193;22;20158;-82
2022/01/23 09:52:20;;;;;;;13.00;9.53;;;3.50;99.90;;;;;;6317548;22;20157;-84
2022/01/23 09:54:56;;;;;;;12.93;9.60;;;3.50;99.90;;;;;;6315909;22;20161;-82
2022/01/23 09:57:25;;;;;;;14.00;10.50;;;3.50;99.90;;;;;;6313030;22;20145;-83
2022/01/23 09:59:54;;;;;;;13.23;9.97;;;3.60;99.90;;;;;;6320839;22;20145;-84
2022/01/23 10:02:23;;;;;;;12.37;9.67;;;3.60;99.90;;;;;;6316319;22;20212;-85
2022/01/23 10:04:51;;;;;;;12.93;9.97;;;3.70;99.90;;;;;;6313470;22;20464;-84
2022/01/23 10:07:17;;;;;;;12.83;9.63;;;3.70;99.90;;;;;;6311336;22;20182;-84
2022/01/23 10:09:43;;;;;;;13.07;9.47;;;4.00;99.90;;;;;;6313203;22;20602;-83
2022/01/23 10:12:11;;;;;;;15.37;10.20;;;3.80;99.90;;;;;;6311833;22;20188;-84
2022/01/23 10:14:37;;;;;;;12.53;9.80;;;3.80;99.90;;;;;;6310881;22;20205;-86
2022/01/23 10:17:06;;;;;;;13.17;10.43;;;3.90;99.90;;;;;;6312625;22;20157;-84
2022/01/23 10:19:33;;;;;;;15.57;10.70;;;4.00;99.90;;;;;;6310480;22;20225;-83
2022/01/23 10:22:00;;;;;;;13.10;10.27;;;3.90;99.90;;;;;;6308708;22;20163;-83
2022/01/23 10:24:28;;;;;;;17.60;10.57;;;3.90;99.90;;;;;;6313084;22;20228;-84
2022/01/23 10:26:56;;;;;;;11.97;9.07;;;4.00;99.90;;;;;;6311766;22;20153;-83
2022/01/23 10:29:32;;;;;;;14.90;10.20;;;4.00;99.90;;;;;;6313108;22;20214;-84
2022/01/23 10:32:03;;;;;;;12.97;9.63;;;4.10;99.90;;;;;;6311446;22;20146;-86
2022/01/23 10:34:58;;;;;;;13.43;9.83;;;4.10;99.90;;;;;;6312716;22;20705;-84
2022/01/23 10:37:26;;;;;;;12.60;9.07;;;4.10;99.90;;;;;;6311824;22;20149;-84
2022/01/23 10:39:52;;;;;;;12.00;9.60;;;4.20;99.90;;;;;;6312244;22;20154;-84
2022/01/23 10:46:39;;;;;;;13.30;10.13;;;4.20;99.90;;;;;;6312992;22;20237;-84
2022/01/23 10:48:35;;;;;;;12.77;10.40;;;4.40;99.90;;;;;;6312563;22;20192;-84
2022/01/23 10:51:25;;;;;;;12.87;9.57;;;4.40;99.90;;;;;;6313598;22;20242;-84
2022/01/23 10:54:22;;;;;;;9.83;7.80;;;4.40;99.90;;;;;;6311824;22;20181;-84
2022/01/23 10:57:09;;;;;;;12.37;9.00;;;4.60;99.90;;;;;;6286723;22;20154;-84
2022/01/23 10:59:45;;;;;;;10.30;9.23;;;4.80;99.90;;;;;;6312620;22;20590;-83
2022/01/23 11:02:24;;;;;;;9.53;8.27;;;4.80;99.90;;;;;;6312530;22;20146;-82
2022/01/23 11:04:54;;;;;;;11.43;8.83;;;4.70;99.90;;;;;;6312466;22;20147;-83
2022/01/23 11:07:21;;;;;;;11.00;8.63;;;5.10;99.90;;;;;;6312679;22;20254;-83
2022/01/23 11:09:47;;;;;;;13.00;8.50;;;4.80;99.90;;;;;;6312377;22;20154;-83
2022/01/23 11:12:32;;;;;;;10.43;8.10;;;4.80;99.90;;;;;;6312666;22;20150;-83
2022/01/23 11:17:54;;;;;;;7.93;7.13;;;5.10;99.90;;;;;;6311418;22;20138;-84
2022/01/23 11:20:35;;;;;;;9.43;6.87;;;5.20;99.90;;;;;;6313410;22;20160;-82
2022/01/23 11:23:09;;;;;;;5.97;5.37;;;5.20;99.90;;;;;;6311155;22;20210;-82
2022/01/23 11:25:35;;;;;;;12.53;7.23;;;5.20;99.90;;;;;;6311072;22;20154;-83
2022/01/23 11:28:03;;;;;;;9.43;5.97;;;5.30;99.90;;;;;;6311160;22;20528;-82
2022/01/23 11:30:41;;;;;;;8.33;6.50;;;5.50;99.90;;;;;;6312852;22;20159;-81
2022/01/23 11:33:17;;;;;;;7.17;6.07;;;5.50;99.90;;;;;;6312386;22;20160;-83
2022/01/23 11:35:44;;;;;;;10.57;5.27;;;5.50;99.90;;;;;;6313137;22;20131;-82
2022/01/23 11:38:14;;;;;;;8.70;6.50;;;5.60;99.90;;;;;;6313645;22;20144;-84
2022/01/23 11:54:43;;;;;;;12.63;6.27;;;5.60;99.90;;;;;;6313912;22;20210;-82
2022/01/23 11:57:34;;;;;;;13.27;7.27;;;5.50;99.90;;;;;;6310054;22;20158;-84
2022/01/23 12:00:05;;;;;;;6.20;5.60;;;5.40;99.90;;;;;;6311994;22;20151;-83
2022/01/23 12:02:37;;;;;;;6.37;4.93;;;5.40;99.90;;;;;;6314798;22;20199;-84
2022/01/23 12:05:17;;;;;;;7.67;4.90;;;5.30;99.90;;;;;;6314979;22;20154;-82
2022/01/23 12:07:46;;;;;;;8.50;4.23;;;5.40;99.90;;;;;;6315171;22;20144;-82
2022/01/23 12:10:26;;;;;;;8.50;4.60;;;5.40;99.90;;;;;;6315472;22;20156;-83
2022/01/23 12:13:33;;;;;;;8.60;4.90;;;5.40;99.90;;;;;;6313475;22;20171;-81
2022/01/23 12:18:43;;;;;;;7.90;4.47;;;5.30;99.90;;;;;;6314343;22;20222;-83
2022/01/23 12:21:27;;;;;;;10.10;4.63;;;5.40;99.90;;;;;;6313287;22;20156;-83
2022/01/23 12:24:01;;;;;;;5.13;4.63;;;5.40;99.90;;;;;;6314824;22;20244;-84
2022/01/23 12:26:27;;;;;;;9.90;4.83;;;5.30;99.90;;;;;;6312603;22;20163;-84
2022/01/23 12:28:53;;;;;;;5.77;5.00;;;5.30;99.90;;;;;;6316255;22;20144;-83
2022/01/23 12:31:26;;;;;;;6.73;5.43;;;5.40;99.90;;;;;;6312948;22;20583;-83
2022/01/23 12:33:58;;;;;;;7.77;5.20;;;5.40;99.90;;;;;;6315230;22;20182;-83
2022/01/23 12:36:31;;;;;;;6.53;5.13;;;5.40;99.90;;;;;;6315991;22;20131;-83
2022/01/23 12:38:58;;;;;;;6.47;5.30;;;5.30;99.90;;;;;;6317429;22;20140;-83
2022/01/23 12:41:32;;;;;;;8.77;6.00;;;5.30;99.90;;;;;;6316505;22;20142;-83
2022/01/23 12:44:06;;;;;;;6.60;4.97;;;5.30;99.90;;;;;;6316366;22;20226;-83
2022/01/23 12:46:39;;;;;;;5.67;5.07;;;5.30;99.90;;;;;;6316719;22;20138;-83
2022/01/23 12:49:29;;;;;;;6.57;4.70;;;5.40;99.90;;;;;;6317226;22;20155;-83
2022/01/23 12:52:20;;;;;;;9.00;5.53;;;5.50;99.90;;;;;;6317835;22;20207;-83
2022/01/23 12:54:59;;;;;;;8.30;5.87;;;5.50;99.90;;;;;;6314150;22;20612;-84
2022/01/23 12:57:41;;;;;;;5.30;4.57;;;5.50;99.90;;;;;;6316618;22;20190;-83
2022/01/23 13:00:15;;;;;;;5.97;4.23;;;5.40;99.90;;;;;;6317599;22;20143;-83
2022/01/23 13:02:46;;;;;;;14.03;5.23;;;5.50;99.90;;;;;;6316363;22;20184;-83
2022/01/23 13:05:16;;;;;;;5.80;4.47;;;5.50;99.90;;;;;;6315943;22;20206;-83
2022/01/23 13:13:48;;;;;;;8.33;3.03;;;5.40;99.90;;;;;;6286161;22;20186;-81
2022/01/23 13:27:18;;;;;;;2.80;2.60;;;5.40;99.90;;;;;;6318248;22;20144;-80
2022/01/23 13:32:16;;;;;;;4.20;2.80;;;5.50;99.90;;;;;;6320548;22;20212;-83
2022/01/23 13:34:51;;;;;;;4.97;2.90;;;5.30;99.90;;;;;;6318752;22;20212;-83
2022/01/23 13:37:24;;;;;;;3.67;3.23;;;5.20;99.90;;;;;;6317869;22;20146;-81
2022/01/23 13:40:00;;;;;;;3.07;2.70;;;5.30;99.90;;;;;;6316366;22;20147;-83
2022/01/23 13:59:17;;;;;;;4.73;3.73;;;5.70;99.90;;;;;;6315432;22;20138;-84
2022/01/23 14:02:25;;;;;;;5.47;3.80;;;5.50;99.90;;;;;;6311269;22;20158;-85
2022/01/23 14:04:38;;;;;;;9.80;4.50;;;5.50;99.90;;;;;;6304352;22;20229;-85
2022/01/23 14:07:04;;;;;;;6.70;4.10;;;5.50;99.90;;;;;;6314615;22;20148;-85
2022/01/23 14:09:40;;;;;;;5.57;4.30;;;5.60;99.90;;;;;;6316723;22;20227;-84
2022/01/23 14:12:12;;;;;;;4.83;3.73;;;5.60;99.90;;;;;;6316702;22;20196;-85
2022/01/23 14:14:54;;;;;;;6.23;4.70;;;5.50;99.90;;;;;;6314090;22;20202;-85
2022/01/23 14:17:25;;;;;;;4.37;3.90;;;5.40;99.90;;;;;;6315173;22;20226;-85
2022/01/23 14:20:05;;;;;;;4.60;3.90;;;5.50;99.90;;;;;;6315857;22;20131;-85
2022/01/23 14:22:35;;;;;;;6.77;4.20;;;5.40;99.90;;;;;;6316029;22;20214;-84
2022/01/23 14:25:08;;;;;;;4.90;4.33;;;5.40;99.90;;;;;;6317772;22;20150;-84
2022/01/23 14:27:34;;;;;;;4.50;4.10;;;5.30;99.90;;;;;;6316654;22;20229;-84
2022/01/23 14:30:09;;;;;;;5.43;4.93;;;5.20;99.90;;;;;;6319073;22;20150;-85
2022/01/23 14:32:46;;;;;;;4.37;3.97;;;5.10;99.90;;;;;;6319127;22;20221;-84
2022/01/23 14:35:16;;;;;;;7.87;4.73;;;5.50;99.90;;;;;;6328640;22;20158;-83
2022/01/23 14:37:43;;;;;;;11.07;5.10;;;5.10;99.90;;;;;;6334949;22;20153;-84
2022/01/23 14:40:10;;;;;;;6.10;4.03;;;5.10;99.90;;;;;;6334128;22;20157;-84
2022/01/23 14:42:36;;;;;;;5.87;4.80;;;5.10;99.90;;;;;;6325452;22;20487;-86
2022/01/23 14:45:09;;;;;;;5.00;4.50;;;5.10;99.90;;;;;;6317323;22;20550;-86
2022/01/23 14:47:36;;;;;;;4.60;4.10;;;5.10;99.90;;;;;;6316386;22;20152;-85
2022/01/23 14:50:10;;;;;;;4.67;4.10;;;5.00;99.90;;;;;;6319577;22;20159;-86
2022/01/23 14:52:37;;;;;;;5.03;4.37;;;5.00;99.90;;;;;;6315278;22;20174;-85
2022/01/23 14:55:03;;;;;;;5.20;4.70;;;5.00;99.90;;;;;;6317161;22;20193;-86
2022/01/23 14:57:33;;;;;;;5.97;4.73;;;4.90;99.90;;;;;;6317991;22;20151;-85
2022/01/23 14:59:59;;;;;;;6.00;5.20;;;4.90;99.90;;;;;;6317200;22;20147;-85
2022/01/23 15:02:25;;;;;;;6.23;5.63;;;4.90;99.90;;;;;;6315975;22;20150;-84
2022/01/23 15:04:51;;;;;;;5.77;5.20;;;4.90;99.90;;;;;;6317360;22;20139;-86
2022/01/23 15:07:18;;;;;;;5.47;4.97;;;4.80;99.90;;;;;;6316596;22;20153;-85
2022/01/23 15:09:46;;;;;;;5.73;5.23;;;4.90;99.90;;;;;;6318311;22;20223;-84
2022/01/23 15:12:13;;;;;;;6.80;5.80;;;4.90;99.90;;;;;;6318517;22;20529;-85
2022/01/23 15:14:40;;;;;;;5.80;5.20;;;4.80;99.90;;;;;;6316727;22;20230;-84
2022/01/23 15:17:09;;;;;;;6.20;4.93;;;4.80;99.90;;;;;;6314434;22;20201;-85
2022/01/23 15:19:35;;;;;;;7.93;5.23;;;4.80;99.90;;;;;;6317077;22;20176;-84
2022/01/23 15:22:01;;;;;;;5.27;4.50;;;4.80;99.90;;;;;;6318350;22;20155;-84
2022/01/23 15:24:30;;;;;;;7.63;4.20;;;4.90;99.90;;;;;;6316651;22;20181;-84
2022/01/23 15:26:55;;;;;;;7.27;4.57;;;4.80;99.90;;;;;;6316063;22;20176;-84
2022/01/23 15:29:21;;;;;;;6.70;4.60;;;4.90;99.90;;;;;;6315552;22;20154;-84
2022/01/23 15:31:47;;;;;;;6.20;4.77;;;4.70;99.90;;;;;;6315543;22;20538;-84
2022/01/23 15:34:15;;;;;;;7.93;4.47;;;4.80;99.90;;;;;;6314743;22;20523;-84
2022/01/23 15:36:42;;;;;;;6.00;4.27;;;4.80;99.90;;;;;;6313072;22;20152;-86
2022/01/23 15:39:08;;;;;;;7.87;5.00;;;5.10;99.90;;;;;;6314944;22;20191;-85
2022/01/23 15:41:34;;;;;;;5.30;4.80;;;4.80;99.90;;;;;;6313888;22;20181;-82
2022/01/23 15:44:03;;;;;;;5.90;5.33;;;4.80;99.90;;;;;;6315919;22;20250;-85
2022/01/23 15:46:28;;;;;;;5.53;5.03;;;4.70;99.90;;;;;;6313622;22;20185;-85
2022/01/23 15:48:54;;;;;;;6.27;5.60;;;4.70;99.90;;;;;;6313306;22;20222;-84
2022/01/23 15:51:20;;;;;;;6.50;5.80;;;4.60;99.90;;;;;;6311762;22;20542;-85
2022/01/23 15:53:45;;;;;;;6.40;5.80;;;4.50;99.90;;;;;;6314277;22;20182;-83
2022/01/23 15:56:11;;;;;;;6.37;5.77;;;4.40;99.90;;;;;;6314071;22;20241;-83
2022/01/23 15:58:38;;;;;;;6.80;5.87;;;4.40;99.90;;;;;;6312602;22;20201;-84
2022/01/23 16:01:04;;;;;;;6.83;6.13;;;4.40;99.90;;;;;;6311106;22;20150;-84
2022/01/23 16:03:31;;;;;;;7.17;6.47;;;4.20;99.90;;;;;;6311196;22;20185;-84
2022/01/23 16:05:57;;;;;;;10.77;6.20;;;4.20;99.90;;;;;;6309823;22;20197;-84
2022/01/23 16:08:23;;;;;;;7.47;6.10;;;4.10;99.90;;;;;;6308414;22;20494;-86
2022/01/23 16:10:49;;;;;;;9.40;6.70;;;4.20;99.90;;;;;;6309591;22;20184;-84
2022/01/23 16:13:15;;;;;;;7.70;6.90;;;4.00;99.90;;;;;;6312838;22;20217;-86
2022/01/23 16:15:43;;;;;;;7.13;6.13;;;4.00;99.90;;;;;;6311480;22;20162;-85
2022/01/23 16:18:09;;;;;;;8.90;7.27;;;4.00;99.90;;;;;;6313073;22;20627;-85
2022/01/23 16:20:36;;;;;;;7.20;6.50;;;3.90;99.90;;;;;;6312016;22;20148;-85
2022/01/23 16:23:02;;;;;;;12.17;6.97;;;3.90;99.90;;;;;;6311446;22;20175;-84
2022/01/23 16:25:29;;;;;;;10.30;7.20;;;3.90;99.90;;;;;;6312325;22;20142;-85
2022/01/23 16:27:54;;;;;;;7.57;6.80;;;3.90;99.90;;;;;;6313981;22;20154;-84
2022/01/23 16:30:21;;;;;;;7.27;6.53;;;3.80;99.90;;;;;;6310332;22;20151;-85
2022/01/23 16:32:47;;;;;;;9.67;7.20;;;3.70;99.90;;;;;;6312618;22;20173;-85